sensor_id;sensor_type;location;lat;lon;timestamp;P1;durP1;ratioP1;P2;durP2;ratioP2
1294;SDS011;640;48.310;11.728;2023-04-03T00:01:25;6.88;;;3.97;;
1294;SDS011;640;48.310;11.728;2023-04-03T00:03:54;5.95;;;3.60;;
1294;SDS011;640;48.310;11.728;2023-04-03T00:06:24;6.60;;;3.53;;
1294;SDS011;640;48.310;11.728;2023-04-03T00:08:53;8.00;;;3.92;;
1294;SDS011;640;48.310;11.728;2023-04-03T00:11:21;7.40;;;3.63;;
1294;SDS011;640;48.310;11.728;2023-04-03T00:13:50;4.80;;;2.85;;
1294;SDS011;640;48.310;11.728;2023-04-03T00:16:18;6.65;;;3.95;;
1294;SDS011;640;48.310;11.728;2023-04-03T00:18:47;5.75;;;4.05;;
1294;SDS011;640;48.310;11.728;2023-04-03T00:21:15;6.45;;;3.55;;
1294;SDS011;640;48.310;11.728;2023-04-03T00:23:45;5.32;;;3.90;;
1294;SDS011;640;48.310;11.728;2023-04-03T00:26:13;5.73;;;3.30;;
1294;SDS011;640;48.310;11.728;2023-04-03T00:28:41;5.18;;;3.25;;
1294;SDS011;640;48.310;11.728;2023-04-03T00:31:10;3.92;;;2.78;;
1294;SDS011;640;48.310;11.728;2023-04-03T00:33:38;6.30;;;4.20;;
1294;SDS011;640;48.310;11.728;2023-04-03T00:36:07;5.43;;;3.03;;
1294;SDS011;640;48.310;11.728;2023-04-03T00:38:37;7.55;;;3.88;;
1294;SDS011;640;48.310;11.728;2023-04-03T00:41:09;6.60;;;3.65;;
1294;SDS011;640;48.310;11.728;2023-04-03T00:43:37;5.47;;;3.53;;
1294;SDS011;640;48.310;11.728;2023-04-03T00:46:05;7.35;;;3.50;;
1294;SDS011;640;48.310;11.728;2023-04-03T00:48:34;5.45;;;2.90;;
1294;SDS011;640;48.310;11.728;2023-04-03T00:51:04;5.75;;;3.70;;
1294;SDS011;640;48.310;11.728;2023-04-03T00:53:35;5.38;;;3.50;;
1294;SDS011;640;48.310;11.728;2023-04-03T00:56:10;5.20;;;3.47;;
1294;SDS011;640;48.310;11.728;2023-04-03T00:58:42;4.18;;;3.03;;
1294;SDS011;640;48.310;11.728;2023-04-03T01:01:14;4.60;;;3.20;;
1294;SDS011;640;48.310;11.728;2023-04-03T01:03:44;6.13;;;3.25;;
1294;SDS011;640;48.310;11.728;2023-04-03T01:06:13;5.25;;;3.08;;
1294;SDS011;640;48.310;11.728;2023-04-03T01:08:44;3.47;;;2.33;;
1294;SDS011;640;48.310;11.728;2023-04-03T01:11:15;5.88;;;3.47;;
1294;SDS011;640;48.310;11.728;2023-04-03T01:13:43;5.60;;;3.07;;
1294;SDS011;640;48.310;11.728;2023-04-03T01:16:11;4.10;;;3.38;;
1294;SDS011;640;48.310;11.728;2023-04-03T01:18:40;4.57;;;3.38;;
1294;SDS011;640;48.310;11.728;2023-04-03T01:24:29;3.50;;;2.53;;
1294;SDS011;640;48.310;11.728;2023-04-03T01:27:03;5.28;;;3.42;;
1294;SDS011;640;48.310;11.728;2023-04-03T01:29:32;5.88;;;2.97;;
1294;SDS011;640;48.310;11.728;2023-04-03T01:32:02;5.45;;;2.83;;
1294;SDS011;640;48.310;11.728;2023-04-03T01:34:31;4.32;;;2.80;;
1294;SDS011;640;48.310;11.728;2023-04-03T01:36:59;4.88;;;2.90;;
1294;SDS011;640;48.310;11.728;2023-04-03T01:39:28;4.28;;;2.78;;
1294;SDS011;640;48.310;11.728;2023-04-03T01:41:56;4.93;;;2.97;;
1294;SDS011;640;48.310;11.728;2023-04-03T01:44:26;4.35;;;2.78;;
1294;SDS011;640;48.310;11.728;2023-04-03T01:46:54;4.30;;;2.60;;
1294;SDS011;640;48.310;11.728;2023-04-03T01:49:24;5.18;;;3.03;;
1294;SDS011;640;48.310;11.728;2023-04-03T01:51:52;4.05;;;2.83;;
1294;SDS011;640;48.310;11.728;2023-04-03T01:54:20;3.83;;;3.00;;
1294;SDS011;640;48.310;11.728;2023-04-03T01:56:49;4.55;;;2.50;;
1294;SDS011;640;48.310;11.728;2023-04-03T01:59:17;3.40;;;2.20;;
1294;SDS011;640;48.310;11.728;2023-04-03T02:01:46;5.68;;;2.67;;
1294;SDS011;640;48.310;11.728;2023-04-03T02:04:14;4.13;;;2.78;;
1294;SDS011;640;48.310;11.728;2023-04-03T02:06:44;3.80;;;2.70;;
1294;SDS011;640;48.310;11.728;2023-04-03T02:09:12;3.63;;;2.27;;
1294;SDS011;640;48.310;11.728;2023-04-03T02:11:40;5.82;;;2.95;;
1294;SDS011;640;48.310;11.728;2023-04-03T02:14:09;5.20;;;3.22;;
1294;SDS011;640;48.310;11.728;2023-04-03T02:16:37;3.85;;;2.38;;
1294;SDS011;640;48.310;11.728;2023-04-03T02:19:05;3.28;;;2.30;;
1294;SDS011;640;48.310;11.728;2023-04-03T02:21:34;3.30;;;2.47;;
1294;SDS011;640;48.310;11.728;2023-04-03T02:24:04;2.65;;;1.95;;
1294;SDS011;640;48.310;11.728;2023-04-03T02:29:01;4.22;;;2.28;;
1294;SDS011;640;48.310;11.728;2023-04-03T02:31:29;4.10;;;2.50;;
1294;SDS011;640;48.310;11.728;2023-04-03T02:33:57;4.28;;;2.67;;
1294;SDS011;640;48.310;11.728;2023-04-03T02:36:26;4.13;;;2.45;;
1294;SDS011;640;48.310;11.728;2023-04-03T02:41:26;4.50;;;2.78;;
1294;SDS011;640;48.310;11.728;2023-04-03T02:44:00;3.17;;;2.50;;
1294;SDS011;640;48.310;11.728;2023-04-03T02:46:28;3.55;;;2.20;;
1294;SDS011;640;48.310;11.728;2023-04-03T02:48:57;3.50;;;2.22;;
1294;SDS011;640;48.310;11.728;2023-04-03T02:51:25;2.58;;;1.55;;
1294;SDS011;640;48.310;11.728;2023-04-03T02:53:53;2.90;;;1.63;;
1294;SDS011;640;48.310;11.728;2023-04-03T02:56:21;4.00;;;2.63;;
1294;SDS011;640;48.310;11.728;2023-04-03T02:58:51;2.67;;;1.92;;
1294;SDS011;640;48.310;11.728;2023-04-03T03:01:20;3.83;;;2.13;;
1294;SDS011;640;48.310;11.728;2023-04-03T03:03:48;6.78;;;2.63;;
1294;SDS011;640;48.310;11.728;2023-04-03T03:06:17;4.13;;;2.70;;
1294;SDS011;640;48.310;11.728;2023-04-03T03:08:45;4.63;;;2.58;;
1294;SDS011;640;48.310;11.728;2023-04-03T03:11:13;2.85;;;1.77;;
1294;SDS011;640;48.310;11.728;2023-04-03T03:13:42;4.10;;;2.53;;
1294;SDS011;640;48.310;11.728;2023-04-03T03:16:11;3.08;;;2.05;;
1294;SDS011;640;48.310;11.728;2023-04-03T03:18:40;3.58;;;1.73;;
1294;SDS011;640;48.310;11.728;2023-04-03T03:21:08;2.70;;;1.58;;
1294;SDS011;640;48.310;11.728;2023-04-03T03:23:37;3.92;;;2.08;;
1294;SDS011;640;48.310;11.728;2023-04-03T03:26:06;4.35;;;2.63;;
1294;SDS011;640;48.310;11.728;2023-04-03T03:31:04;3.65;;;2.67;;
1294;SDS011;640;48.310;11.728;2023-04-03T03:33:34;4.15;;;2.47;;
1294;SDS011;640;48.310;11.728;2023-04-03T03:36:03;6.00;;;2.42;;
1294;SDS011;640;48.310;11.728;2023-04-03T03:38:32;3.70;;;2.70;;
1294;SDS011;640;48.310;11.728;2023-04-03T03:41:00;2.22;;;1.83;;
1294;SDS011;640;48.310;11.728;2023-04-03T03:43:29;3.00;;;2.35;;
1294;SDS011;640;48.310;11.728;2023-04-03T03:45:57;6.93;;;2.50;;
1294;SDS011;640;48.310;11.728;2023-04-03T03:48:25;4.13;;;2.67;;
1294;SDS011;640;48.310;11.728;2023-04-03T03:50:55;5.40;;;2.38;;
1294;SDS011;640;48.310;11.728;2023-04-03T03:53:23;5.67;;;2.80;;
1294;SDS011;640;48.310;11.728;2023-04-03T03:55:52;5.18;;;2.60;;
1294;SDS011;640;48.310;11.728;2023-04-03T03:58:20;4.88;;;3.05;;
1294;SDS011;640;48.310;11.728;2023-04-03T04:00:49;3.60;;;1.98;;
1294;SDS011;640;48.310;11.728;2023-04-03T04:03:17;3.58;;;2.60;;
1294;SDS011;640;48.310;11.728;2023-04-03T04:05:45;4.20;;;2.72;;
1294;SDS011;640;48.310;11.728;2023-04-03T04:08:15;5.10;;;3.20;;
1294;SDS011;640;48.310;11.728;2023-04-03T04:10:44;4.73;;;2.70;;
1294;SDS011;640;48.310;11.728;2023-04-03T04:13:12;3.67;;;2.60;;
1294;SDS011;640;48.310;11.728;2023-04-03T04:15:40;2.85;;;2.08;;
1294;SDS011;640;48.310;11.728;2023-04-03T04:18:08;4.60;;;2.85;;
1294;SDS011;640;48.310;11.728;2023-04-03T04:20:37;5.20;;;2.70;;
1294;SDS011;640;48.310;11.728;2023-04-03T04:23:05;4.63;;;2.30;;
1294;SDS011;640;48.310;11.728;2023-04-03T04:25:35;5.43;;;2.80;;
1294;SDS011;640;48.310;11.728;2023-04-03T04:28:04;4.18;;;2.20;;
1294;SDS011;640;48.310;11.728;2023-04-03T04:30:32;2.72;;;1.80;;
1294;SDS011;640;48.310;11.728;2023-04-03T04:33:01;3.10;;;2.20;;
1294;SDS011;640;48.310;11.728;2023-04-03T04:35:29;5.00;;;2.58;;
1294;SDS011;640;48.310;11.728;2023-04-03T04:37:57;6.43;;;3.03;;
1294;SDS011;640;48.310;11.728;2023-04-03T04:40:26;3.90;;;2.80;;
1294;SDS011;640;48.310;11.728;2023-04-03T04:42:56;6.07;;;3.30;;
1294;SDS011;640;48.310;11.728;2023-04-03T04:45:24;4.83;;;2.80;;
1294;SDS011;640;48.310;11.728;2023-04-03T04:47:54;5.22;;;3.03;;
1294;SDS011;640;48.310;11.728;2023-04-03T04:50:23;6.28;;;2.92;;
1294;SDS011;640;48.310;11.728;2023-04-03T04:52:51;5.53;;;3.50;;
1294;SDS011;640;48.310;11.728;2023-04-03T04:55:19;3.88;;;2.35;;
1294;SDS011;640;48.310;11.728;2023-04-03T04:57:48;3.70;;;2.33;;
1294;SDS011;640;48.310;11.728;2023-04-03T05:00:18;4.07;;;2.53;;
1294;SDS011;640;48.310;11.728;2023-04-03T05:02:47;4.78;;;3.35;;
1294;SDS011;640;48.310;11.728;2023-04-03T05:05:15;2.28;;;1.48;;
1294;SDS011;640;48.310;11.728;2023-04-03T05:07:44;4.55;;;2.67;;
1294;SDS011;640;48.310;11.728;2023-04-03T05:10:12;4.47;;;2.50;;
1294;SDS011;640;48.310;11.728;2023-04-03T05:12:40;2.70;;;1.73;;
1294;SDS011;640;48.310;11.728;2023-04-03T05:15:09;3.72;;;2.33;;
1294;SDS011;640;48.310;11.728;2023-04-03T05:17:39;6.50;;;3.35;;
1294;SDS011;640;48.310;11.728;2023-04-03T05:20:08;4.03;;;1.88;;
1294;SDS011;640;48.310;11.728;2023-04-03T05:22:37;4.57;;;2.85;;
1294;SDS011;640;48.310;11.728;2023-04-03T05:25:05;7.07;;;3.05;;
1294;SDS011;640;48.310;11.728;2023-04-03T05:27:34;9.45;;;2.33;;
1294;SDS011;640;48.310;11.728;2023-04-03T05:30:03;5.35;;;3.25;;
1294;SDS011;640;48.310;11.728;2023-04-03T05:32:32;5.18;;;2.92;;
1294;SDS011;640;48.310;11.728;2023-04-03T05:35:02;5.38;;;3.03;;
1294;SDS011;640;48.310;11.728;2023-04-03T05:37:31;5.65;;;3.22;;
1294;SDS011;640;48.310;11.728;2023-04-03T05:40:00;7.55;;;3.60;;
1294;SDS011;640;48.310;11.728;2023-04-03T05:42:28;5.43;;;3.15;;
1294;SDS011;640;48.310;11.728;2023-04-03T05:44:56;6.55;;;3.28;;
1294;SDS011;640;48.310;11.728;2023-04-03T05:47:25;7.47;;;3.70;;
1294;SDS011;640;48.310;11.728;2023-04-03T05:49:53;8.63;;;3.58;;
1294;SDS011;640;48.310;11.728;2023-04-03T05:52:25;2.70;;;2.15;;
1294;SDS011;640;48.310;11.728;2023-04-03T05:54:54;5.18;;;3.40;;
1294;SDS011;640;48.310;11.728;2023-04-03T05:57:23;5.63;;;3.45;;
1294;SDS011;640;48.310;11.728;2023-04-03T05:59:52;6.28;;;3.05;;
1294;SDS011;640;48.310;11.728;2023-04-03T06:02:21;6.78;;;3.35;;
1294;SDS011;640;48.310;11.728;2023-04-03T06:04:50;6.10;;;3.50;;
1294;SDS011;640;48.310;11.728;2023-04-03T06:07:20;4.95;;;2.88;;
1294;SDS011;640;48.310;11.728;2023-04-03T06:09:50;5.32;;;3.47;;
1294;SDS011;640;48.310;11.728;2023-04-03T06:12:19;4.03;;;2.80;;
1294;SDS011;640;48.310;11.728;2023-04-03T06:14:48;7.72;;;4.03;;
1294;SDS011;640;48.310;11.728;2023-04-03T06:17:17;3.28;;;2.35;;
1294;SDS011;640;48.310;11.728;2023-04-03T06:19:46;5.53;;;3.33;;
1294;SDS011;640;48.310;11.728;2023-04-03T06:22:14;6.30;;;3.67;;
1294;SDS011;640;48.310;11.728;2023-04-03T06:24:43;4.03;;;2.78;;
1294;SDS011;640;48.310;11.728;2023-04-03T06:27:12;6.40;;;3.88;;
1294;SDS011;640;48.310;11.728;2023-04-03T06:29:41;3.05;;;2.67;;
1294;SDS011;640;48.310;11.728;2023-04-03T06:32:09;6.97;;;3.83;;
1294;SDS011;640;48.310;11.728;2023-04-03T06:34:38;4.85;;;3.08;;
1294;SDS011;640;48.310;11.728;2023-04-03T06:37:06;6.22;;;3.13;;
1294;SDS011;640;48.310;11.728;2023-04-03T06:39:35;3.90;;;2.63;;
1294;SDS011;640;48.310;11.728;2023-04-03T06:42:03;5.47;;;3.25;;
1294;SDS011;640;48.310;11.728;2023-04-03T06:44:33;6.22;;;4.03;;
1294;SDS011;640;48.310;11.728;2023-04-03T06:47:01;4.82;;;3.08;;
1294;SDS011;640;48.310;11.728;2023-04-03T06:49:30;7.07;;;3.35;;
1294;SDS011;640;48.310;11.728;2023-04-03T06:51:58;5.10;;;3.92;;
1294;SDS011;640;48.310;11.728;2023-04-03T06:54:28;8.50;;;3.70;;
1294;SDS011;640;48.310;11.728;2023-04-03T06:56:57;4.55;;;2.95;;
1294;SDS011;640;48.310;11.728;2023-04-03T06:59:25;10.55;;;4.70;;
1294;SDS011;640;48.310;11.728;2023-04-03T07:01:55;5.30;;;3.85;;
1294;SDS011;640;48.310;11.728;2023-04-03T07:04:25;6.25;;;4.43;;
1294;SDS011;640;48.310;11.728;2023-04-03T07:06:54;6.72;;;3.95;;
1294;SDS011;640;48.310;11.728;2023-04-03T07:09:22;6.47;;;4.07;;
1294;SDS011;640;48.310;11.728;2023-04-03T07:11:50;7.35;;;4.47;;
1294;SDS011;640;48.310;11.728;2023-04-03T07:14:19;7.43;;;4.80;;
1294;SDS011;640;48.310;11.728;2023-04-03T07:16:48;10.35;;;4.07;;
1294;SDS011;640;48.310;11.728;2023-04-03T07:19:17;6.18;;;3.88;;
1294;SDS011;640;48.310;11.728;2023-04-03T07:21:46;4.93;;;3.00;;
1294;SDS011;640;48.310;11.728;2023-04-03T07:24:15;6.03;;;4.00;;
1294;SDS011;640;48.310;11.728;2023-04-03T07:26:43;7.78;;;3.97;;
1294;SDS011;640;48.310;11.728;2023-04-03T07:29:12;6.32;;;3.75;;
1294;SDS011;640;48.310;11.728;2023-04-03T07:31:40;6.63;;;4.03;;
1294;SDS011;640;48.310;11.728;2023-04-03T07:34:09;6.78;;;4.68;;
1294;SDS011;640;48.310;11.728;2023-04-03T07:36:39;6.47;;;4.35;;
1294;SDS011;640;48.310;11.728;2023-04-03T07:39:07;9.98;;;5.97;;
1294;SDS011;640;48.310;11.728;2023-04-03T07:41:35;6.68;;;3.38;;
1294;SDS011;640;48.310;11.728;2023-04-03T07:44:04;8.00;;;3.53;;
1294;SDS011;640;48.310;11.728;2023-04-03T07:46:32;7.22;;;4.63;;
1294;SDS011;640;48.310;11.728;2023-04-03T07:49:01;11.45;;;4.78;;
1294;SDS011;640;48.310;11.728;2023-04-03T07:51:29;9.65;;;4.88;;
1294;SDS011;640;48.310;11.728;2023-04-03T07:53:59;8.18;;;4.60;;
1294;SDS011;640;48.310;11.728;2023-04-03T07:56:27;7.57;;;4.27;;
1294;SDS011;640;48.310;11.728;2023-04-03T07:58:56;11.48;;;4.68;;
1294;SDS011;640;48.310;11.728;2023-04-03T08:01:24;5.60;;;3.50;;
1294;SDS011;640;48.310;11.728;2023-04-03T08:03:52;9.20;;;4.45;;
1294;SDS011;640;48.310;11.728;2023-04-03T08:06:21;6.95;;;3.28;;
1294;SDS011;640;48.310;11.728;2023-04-03T08:09:09;6.90;;;4.03;;
1294;SDS011;640;48.310;11.728;2023-04-03T08:11:38;8.15;;;4.40;;
1294;SDS011;640;48.310;11.728;2023-04-03T08:14:07;7.90;;;4.10;;
1294;SDS011;640;48.310;11.728;2023-04-03T08:16:37;6.47;;;3.88;;
1294;SDS011;640;48.310;11.728;2023-04-03T08:19:06;9.57;;;4.57;;
1294;SDS011;640;48.310;11.728;2023-04-03T08:21:44;6.60;;;4.32;;
1294;SDS011;640;48.310;11.728;2023-04-03T08:24:15;4.72;;;2.90;;
1294;SDS011;640;48.310;11.728;2023-04-03T08:26:43;6.73;;;3.60;;
1294;SDS011;640;48.310;11.728;2023-04-03T08:29:11;8.10;;;4.65;;
1294;SDS011;640;48.310;11.728;2023-04-03T08:31:40;5.78;;;3.85;;
1294;SDS011;640;48.310;11.728;2023-04-03T08:34:08;6.22;;;3.80;;
1294;SDS011;640;48.310;11.728;2023-04-03T08:36:36;7.70;;;4.43;;
1294;SDS011;640;48.310;11.728;2023-04-03T08:39:05;9.77;;;6.00;;
1294;SDS011;640;48.310;11.728;2023-04-03T08:41:35;5.68;;;3.85;;
1294;SDS011;640;48.310;11.728;2023-04-03T08:44:13;8.48;;;4.20;;
1294;SDS011;640;48.310;11.728;2023-04-03T08:46:47;6.18;;;3.85;;
1294;SDS011;640;48.310;11.728;2023-04-03T08:49:24;6.55;;;3.90;;
1294;SDS011;640;48.310;11.728;2023-04-03T08:51:55;5.10;;;3.60;;
1294;SDS011;640;48.310;11.728;2023-04-03T08:54:25;4.53;;;3.05;;
1294;SDS011;640;48.310;11.728;2023-04-03T08:56:59;7.28;;;3.95;;
1294;SDS011;640;48.310;11.728;2023-04-03T08:59:32;3.97;;;2.92;;
1294;SDS011;640;48.310;11.728;2023-04-03T09:02:02;3.53;;;2.67;;
1294;SDS011;640;48.310;11.728;2023-04-03T09:04:49;6.60;;;3.50;;
1294;SDS011;640;48.310;11.728;2023-04-03T09:07:19;4.57;;;2.53;;
1294;SDS011;640;48.310;11.728;2023-04-03T09:09:50;8.00;;;2.95;;
1294;SDS011;640;48.310;11.728;2023-04-03T09:12:22;6.65;;;4.00;;
1294;SDS011;640;48.310;11.728;2023-04-03T09:14:57;6.45;;;2.85;;
1294;SDS011;640;48.310;11.728;2023-04-03T09:17:33;3.83;;;2.60;;
1294;SDS011;640;48.310;11.728;2023-04-03T09:20:08;3.83;;;2.00;;
1294;SDS011;640;48.310;11.728;2023-04-03T09:22:46;6.00;;;3.10;;
1294;SDS011;640;48.310;11.728;2023-04-03T09:25:20;5.18;;;2.70;;
1294;SDS011;640;48.310;11.728;2023-04-03T09:30:19;3.60;;;2.67;;
1294;SDS011;640;48.310;11.728;2023-04-03T09:32:50;7.13;;;3.08;;
1294;SDS011;640;48.310;11.728;2023-04-03T09:35:21;4.47;;;2.80;;
1294;SDS011;640;48.310;11.728;2023-04-03T09:38:17;3.28;;;2.20;;
1294;SDS011;640;48.310;11.728;2023-04-03T09:40:48;3.10;;;1.88;;
1294;SDS011;640;48.310;11.728;2023-04-03T09:43:26;6.32;;;3.15;;
1294;SDS011;640;48.310;11.728;2023-04-03T09:45:56;3.35;;;2.00;;
1294;SDS011;640;48.310;11.728;2023-04-03T09:48:50;4.53;;;2.15;;
1294;SDS011;640;48.310;11.728;2023-04-03T09:51:34;2.70;;;2.28;;
1294;SDS011;640;48.310;11.728;2023-04-03T09:54:23;4.97;;;2.13;;
1294;SDS011;640;48.310;11.728;2023-04-03T09:56:54;5.07;;;2.17;;
1294;SDS011;640;48.310;11.728;2023-04-03T09:59:24;2.38;;;1.77;;
1294;SDS011;640;48.310;11.728;2023-04-03T10:01:59;4.97;;;2.70;;
1294;SDS011;640;48.310;11.728;2023-04-03T10:04:36;3.33;;;1.83;;
1294;SDS011;640;48.310;11.728;2023-04-03T10:09:57;4.40;;;2.20;;
1294;SDS011;640;48.310;11.728;2023-04-03T10:12:26;5.13;;;2.20;;
1294;SDS011;640;48.310;11.728;2023-04-03T10:14:56;4.63;;;2.42;;
1294;SDS011;640;48.310;11.728;2023-04-03T10:17:28;3.08;;;1.98;;
1294;SDS011;640;48.310;11.728;2023-04-03T10:20:05;5.80;;;2.17;;
1294;SDS011;640;48.310;11.728;2023-04-03T10:22:40;3.00;;;1.95;;
1294;SDS011;640;48.310;11.728;2023-04-03T10:25:23;2.15;;;1.35;;
1294;SDS011;640;48.310;11.728;2023-04-03T10:27:59;3.03;;;1.85;;
1294;SDS011;640;48.310;11.728;2023-04-03T10:36:00;4.82;;;1.70;;
1294;SDS011;640;48.310;11.728;2023-04-03T10:38:39;3.03;;;1.75;;
1294;SDS011;640;48.310;11.728;2023-04-03T10:41:12;3.50;;;1.77;;
1294;SDS011;640;48.310;11.728;2023-04-03T10:43:49;3.33;;;1.40;;
1294;SDS011;640;48.310;11.728;2023-04-03T10:46:26;4.07;;;1.95;;
1294;SDS011;640;48.310;11.728;2023-04-03T10:49:00;4.63;;;1.80;;
1294;SDS011;640;48.310;11.728;2023-04-03T10:51:41;4.00;;;1.48;;
1294;SDS011;640;48.310;11.728;2023-04-03T10:54:11;2.88;;;1.63;;
1294;SDS011;640;48.310;11.728;2023-04-03T10:56:41;1.77;;;1.10;;
1294;SDS011;640;48.310;11.728;2023-04-03T10:59:18;2.97;;;1.35;;
1294;SDS011;640;48.310;11.728;2023-04-03T11:01:53;2.28;;;1.35;;
1294;SDS011;640;48.310;11.728;2023-04-03T11:04:25;1.73;;;1.05;;
1294;SDS011;640;48.310;11.728;2023-04-03T11:06:57;3.50;;;1.15;;
1294;SDS011;640;48.310;11.728;2023-04-03T11:09:28;2.78;;;1.10;;
1294;SDS011;640;48.310;11.728;2023-04-03T11:12:00;2.85;;;1.20;;
1294;SDS011;640;48.310;11.728;2023-04-03T11:14:30;1.98;;;1.13;;
1294;SDS011;640;48.310;11.728;2023-04-03T11:17:04;1.85;;;0.93;;
1294;SDS011;640;48.310;11.728;2023-04-03T11:19:36;2.45;;;1.30;;
1294;SDS011;640;48.310;11.728;2023-04-03T11:22:08;2.85;;;1.40;;
1294;SDS011;640;48.310;11.728;2023-04-03T11:24:41;2.88;;;1.20;;
1294;SDS011;640;48.310;11.728;2023-04-03T11:27:11;6.40;;;1.50;;
1294;SDS011;640;48.310;11.728;2023-04-03T11:29:45;2.05;;;1.25;;
1294;SDS011;640;48.310;11.728;2023-04-03T11:32:25;2.70;;;1.73;;
1294;SDS011;640;48.310;11.728;2023-04-03T11:35:04;3.25;;;1.10;;
1294;SDS011;640;48.310;11.728;2023-04-03T11:37:34;3.58;;;1.30;;
1294;SDS011;640;48.310;11.728;2023-04-03T11:40:04;3.63;;;1.52;;
1294;SDS011;640;48.310;11.728;2023-04-03T11:42:36;3.30;;;1.30;;
1294;SDS011;640;48.310;11.728;2023-04-03T11:45:25;2.58;;;1.02;;
1294;SDS011;640;48.310;11.728;2023-04-03T11:48:01;2.45;;;1.38;;
1294;SDS011;640;48.310;11.728;2023-04-03T11:50:49;2.25;;;1.20;;
1294;SDS011;640;48.310;11.728;2023-04-03T11:53:28;2.38;;;1.30;;
1294;SDS011;640;48.310;11.728;2023-04-03T11:55:59;2.97;;;1.20;;
1294;SDS011;640;48.310;11.728;2023-04-03T11:58:30;3.20;;;1.50;;
1294;SDS011;640;48.310;11.728;2023-04-03T12:01:01;3.22;;;1.40;;
1294;SDS011;640;48.310;11.728;2023-04-03T12:12:32;2.40;;;1.25;;
1294;SDS011;640;48.310;11.728;2023-04-03T12:15:12;4.00;;;1.70;;
1294;SDS011;640;48.310;11.728;2023-04-03T12:17:48;3.97;;;1.80;;
1294;SDS011;640;48.310;11.728;2023-04-03T12:23:30;3.03;;;1.50;;
1294;SDS011;640;48.310;11.728;2023-04-03T12:26:03;4.93;;;1.40;;
1294;SDS011;640;48.310;11.728;2023-04-03T12:28:37;2.67;;;1.40;;
1294;SDS011;640;48.310;11.728;2023-04-03T12:31:09;3.63;;;1.33;;
1294;SDS011;640;48.310;11.728;2023-04-03T12:33:43;3.25;;;1.40;;
1294;SDS011;640;48.310;11.728;2023-04-03T12:36:26;2.70;;;1.17;;
1294;SDS011;640;48.310;11.728;2023-04-03T12:39:04;3.13;;;1.42;;
1294;SDS011;640;48.310;11.728;2023-04-03T12:41:42;1.52;;;1.20;;
1294;SDS011;640;48.310;11.728;2023-04-03T12:44:19;3.25;;;1.42;;
1294;SDS011;640;48.310;11.728;2023-04-03T12:46:55;4.63;;;1.30;;
1294;SDS011;640;48.310;11.728;2023-04-03T12:49:33;3.22;;;1.55;;
1294;SDS011;640;48.310;11.728;2023-04-03T12:52:04;1.60;;;1.08;;
1294;SDS011;640;48.310;11.728;2023-04-03T12:54:35;2.50;;;1.17;;
1294;SDS011;640;48.310;11.728;2023-04-03T12:57:12;4.50;;;1.63;;
1294;SDS011;640;48.310;11.728;2023-04-03T12:59:44;5.03;;;1.48;;
1294;SDS011;640;48.310;11.728;2023-04-03T13:02:19;1.38;;;0.98;;
1294;SDS011;640;48.310;11.728;2023-04-03T13:04:50;3.03;;;1.40;;
1294;SDS011;640;48.310;11.728;2023-04-03T13:07:20;3.13;;;1.20;;
1294;SDS011;640;48.310;11.728;2023-04-03T13:09:55;3.33;;;1.73;;
1294;SDS011;640;48.310;11.728;2023-04-03T13:12:27;2.45;;;1.20;;
1294;SDS011;640;48.310;11.728;2023-04-03T13:14:59;2.80;;;1.38;;
1294;SDS011;640;48.310;11.728;2023-04-03T13:17:30;3.03;;;1.13;;
1294;SDS011;640;48.310;11.728;2023-04-03T13:20:09;7.32;;;1.50;;
1294;SDS011;640;48.310;11.728;2023-04-03T13:22:39;2.95;;;1.27;;
1294;SDS011;640;48.310;11.728;2023-04-03T13:25:11;3.17;;;1.33;;
1294;SDS011;640;48.310;11.728;2023-04-03T13:27:43;3.40;;;1.60;;
1294;SDS011;640;48.310;11.728;2023-04-03T13:30:19;2.13;;;1.20;;
1294;SDS011;640;48.310;11.728;2023-04-03T13:32:53;2.45;;;1.00;;
1294;SDS011;640;48.310;11.728;2023-04-03T13:35:29;4.32;;;1.50;;
1294;SDS011;640;48.310;11.728;2023-04-03T13:38:04;3.75;;;1.30;;
1294;SDS011;640;48.310;11.728;2023-04-03T13:40:46;1.83;;;1.20;;
1294;SDS011;640;48.310;11.728;2023-04-03T13:43:21;2.30;;;1.05;;
1294;SDS011;640;48.310;11.728;2023-04-03T13:45:57;2.35;;;1.30;;
1294;SDS011;640;48.310;11.728;2023-04-03T13:48:35;2.17;;;0.95;;
1294;SDS011;640;48.310;11.728;2023-04-03T13:51:12;3.35;;;1.50;;
1294;SDS011;640;48.310;11.728;2023-04-03T13:53:46;2.78;;;1.27;;
1294;SDS011;640;48.310;11.728;2023-04-03T13:56:18;4.28;;;1.60;;
1294;SDS011;640;48.310;11.728;2023-04-03T13:58:58;2.45;;;0.90;;
1294;SDS011;640;48.310;11.728;2023-04-03T14:01:38;2.78;;;1.00;;
1294;SDS011;640;48.310;11.728;2023-04-03T14:06:39;1.52;;;1.00;;
1294;SDS011;640;48.310;11.728;2023-04-03T14:09:07;2.85;;;0.95;;
1294;SDS011;640;48.310;11.728;2023-04-03T14:11:35;3.10;;;1.50;;
1294;SDS011;640;48.310;11.728;2023-04-03T14:14:09;2.97;;;1.50;;
1294;SDS011;640;48.310;11.728;2023-04-03T14:16:41;2.58;;;1.30;;
1294;SDS011;640;48.310;11.728;2023-04-03T14:19:14;1.73;;;1.10;;
1294;SDS011;640;48.310;11.728;2023-04-03T14:21:46;2.58;;;1.15;;
1294;SDS011;640;48.310;11.728;2023-04-03T14:24:14;2.38;;;1.20;;
1294;SDS011;640;48.310;11.728;2023-04-03T14:26:43;2.85;;;1.23;;
1294;SDS011;640;48.310;11.728;2023-04-03T14:29:13;1.38;;;0.80;;
1294;SDS011;640;48.310;11.728;2023-04-03T14:31:43;3.60;;;1.15;;
1294;SDS011;640;48.310;11.728;2023-04-03T14:34:12;1.75;;;0.90;;
1294;SDS011;640;48.310;11.728;2023-04-03T14:36:41;2.47;;;1.23;;
1294;SDS011;640;48.310;11.728;2023-04-03T14:39:11;1.15;;;0.93;;
1294;SDS011;640;48.310;11.728;2023-04-03T14:41:45;3.38;;;1.13;;
1294;SDS011;640;48.310;11.728;2023-04-03T14:44:15;1.85;;;1.05;;
1294;SDS011;640;48.310;11.728;2023-04-03T14:46:43;2.70;;;1.27;;
1294;SDS011;640;48.310;11.728;2023-04-03T14:49:23;4.45;;;1.30;;
1294;SDS011;640;48.310;11.728;2023-04-03T14:51:55;2.33;;;1.10;;
1294;SDS011;640;48.310;11.728;2023-04-03T14:54:24;3.00;;;1.13;;
1294;SDS011;640;48.310;11.728;2023-04-03T14:56:55;3.00;;;1.30;;
1294;SDS011;640;48.310;11.728;2023-04-03T14:59:26;2.10;;;0.90;;
1294;SDS011;640;48.310;11.728;2023-04-03T15:01:55;2.58;;;1.23;;
1294;SDS011;640;48.310;11.728;2023-04-03T15:04:23;2.28;;;1.00;;
1294;SDS011;640;48.310;11.728;2023-04-03T15:06:52;2.13;;;1.08;;
1294;SDS011;640;48.310;11.728;2023-04-03T15:09:21;2.90;;;1.08;;
1294;SDS011;640;48.310;11.728;2023-04-03T15:11:51;1.90;;;1.00;;
1294;SDS011;640;48.310;11.728;2023-04-03T15:14:20;2.60;;;1.27;;
1294;SDS011;640;48.310;11.728;2023-04-03T15:17:04;2.40;;;1.30;;
1294;SDS011;640;48.310;11.728;2023-04-03T15:19:35;4.88;;;1.25;;
1294;SDS011;640;48.310;11.728;2023-04-03T15:22:05;2.72;;;1.20;;
1294;SDS011;640;48.310;11.728;2023-04-03T15:24:33;3.65;;;1.35;;
1294;SDS011;640;48.310;11.728;2023-04-03T15:27:02;2.90;;;1.52;;
1294;SDS011;640;48.310;11.728;2023-04-03T15:29:30;2.17;;;1.23;;
1294;SDS011;640;48.310;11.728;2023-04-03T15:31:58;1.77;;;1.08;;
1294;SDS011;640;48.310;11.728;2023-04-03T15:34:28;2.28;;;1.20;;
1294;SDS011;640;48.310;11.728;2023-04-03T15:39:26;2.63;;;1.08;;
1294;SDS011;640;48.310;11.728;2023-04-03T15:41:55;1.83;;;1.20;;
1294;SDS011;640;48.310;11.728;2023-04-03T15:44:26;1.60;;;1.20;;
1294;SDS011;640;48.310;11.728;2023-04-03T15:46:54;2.72;;;1.23;;
1294;SDS011;640;48.310;11.728;2023-04-03T15:49:23;2.22;;;1.30;;
1294;SDS011;640;48.310;11.728;2023-04-03T15:51:52;1.60;;;0.82;;
1294;SDS011;640;48.310;11.728;2023-04-03T15:54:21;1.47;;;1.10;;
1294;SDS011;640;48.310;11.728;2023-04-03T15:56:50;3.88;;;1.40;;
1294;SDS011;640;48.310;11.728;2023-04-03T15:59:19;2.22;;;1.40;;
1294;SDS011;640;48.310;11.728;2023-04-03T16:01:47;4.03;;;1.15;;
1294;SDS011;640;48.310;11.728;2023-04-03T16:04:16;3.00;;;1.05;;
1294;SDS011;640;48.310;11.728;2023-04-03T16:06:46;2.25;;;0.98;;
1294;SDS011;640;48.310;11.728;2023-04-03T16:09:16;2.05;;;1.27;;
1294;SDS011;640;48.310;11.728;2023-04-03T16:11:44;2.13;;;1.20;;
1294;SDS011;640;48.310;11.728;2023-04-03T16:14:13;6.13;;;1.27;;
1294;SDS011;640;48.310;11.728;2023-04-03T16:16:41;3.10;;;1.30;;